West End, Texas
Current Conditions -  °F | °C
As of 3:15 AM on Friday 24 Oct 2014 (Local Time) from KARM Reporting Station
Clear Clear  
Wind Chill: 56°   Ceiling: Unl
Heat Index: 56°   Visibility: 10mi
Dew Point: 54°   Wind: 5mph
Humidity: 92%   Direction: 10°N
Pressure: 30.12"   Gusts: NA
Location:  29.1916°N, 96.2212°W
Report Text: KARM 240815Z AUTO 01004KT 10SM CLR 13/12 A3012 RMK AO2 T01320120
Loading
Personal Weather Stations






























Interactive Weather Map
Tropical Storm Tracking
New forecast layout! Learn more

10-Day Weather Forecast

Advertisements
Track Severe Weather on mobile